Time;durP1;ratioP1;P1;durP2;ratioP2;P2;SDS_P1;SDS_P2;PMS_P1;PMS_P2;Temp;Humidity;BMP_temperature;BMP_pressure;BME280_temperature;BME280_humidity;BME280_pressure;Samples;Min_cycle;Max_cycle;Signal;HPM_P1;HPM_P2
2022/05/12 00:01:17;;;;;;;2.60;2.40;;;;;;;19.83;41.74;97929.59;5106110;28;20234;-70
2022/05/12 00:03:45;;;;;;;2.13;1.97;;;;;;;19.63;42.43;97928.25;5102897;28;20244;-70
2022/05/12 00:06:11;;;;;;;2.90;2.37;;;;;;;19.43;43.29;97933.09;5102359;28;20574;-71
2022/05/12 00:08:38;;;;;;;2.40;2.20;;;;;;;19.26;44.02;97934.06;5105010;28;20210;-71
2022/05/12 00:11:05;;;;;;;2.70;2.10;;;;;;;19.13;44.31;97933.66;5104541;28;20210;-70
2022/05/12 00:13:31;;;;;;;3.60;2.20;;;;;;;19.05;44.53;97936.34;5102564;28;20214;-71
2022/05/12 00:15:58;;;;;;;3.83;2.40;;;;;;;18.97;44.39;97930.94;5101919;28;20237;-70
2022/05/12 00:18:25;;;;;;;4.33;2.50;;;;;;;18.91;44.84;97936.94;5104446;28;20211;-71
2022/05/12 00:20:53;;;;;;;2.53;2.23;;;;;;;18.88;45.27;97942.63;5104571;28;20252;-71
2022/05/12 00:23:22;;;;;;;2.60;2.40;;;;;;;18.82;45.04;97943.28;5102707;28;20214;-71
2022/05/12 00:25:50;;;;;;;2.47;2.27;;;;;;;18.75;45.40;97939.56;5101932;28;20206;-71
2022/05/12 00:28:19;;;;;;;3.97;2.10;;;;;;;18.71;44.97;97942.75;5104787;28;20233;-71
2022/05/12 00:30:47;;;;;;;2.20;1.93;;;;;;;18.65;45.48;97938.03;5101823;28;20683;-71
2022/05/12 00:33:14;;;;;;;2.40;2.20;;;;;;;18.61;45.86;97952.72;5105226;28;20206;-70
2022/05/12 00:35:41;;;;;;;2.60;2.40;;;;;;;18.58;46.43;97948.53;5104063;28;20221;-72
2022/05/12 00:38:10;;;;;;;2.50;2.27;;;;;;;18.52;47.36;97951.03;5102647;28;20210;-72
2022/05/12 00:40:37;;;;;;;3.43;2.23;;;;;;;18.50;47.58;97953.00;5101736;28;20249;-71
2022/05/12 00:43:06;;;;;;;3.93;2.57;;;;;;;18.48;47.65;97961.19;5104769;28;20245;-71
2022/05/12 00:45:36;;;;;;;2.60;2.40;;;;;;;18.48;47.51;97965.72;5105614;28;20218;-73
2022/05/12 00:48:04;;;;;;;4.43;2.50;;;;;;;18.46;47.22;97962.38;5101903;28;20275;-71
2022/05/12 00:50:35;;;;;;;2.90;2.20;;;;;;;18.46;47.03;97967.72;5101700;28;20211;-71
2022/05/12 00:53:03;;;;;;;3.67;2.20;;;;;;;18.46;47.63;97968.53;5101442;28;20210;-70
2022/05/12 00:55:34;;;;;;;2.70;2.50;;;;;;;18.47;48.37;97974.75;5101213;28;20215;-71
2022/05/12 00:58:02;;;;;;;2.40;2.20;;;;;;;18.41;49.41;97972.69;5105019;28;20210;-70
2022/05/12 01:00:29;;;;;;;2.93;2.40;;;;;;;18.36;49.37;97978.50;5106346;28;20315;-70
2022/05/12 01:02:58;;;;;;;3.07;2.60;;;;;;;18.28;49.37;97973.06;5104852;28;20210;-70
2022/05/12 01:05:26;;;;;;;2.60;2.40;;;;;;;18.23;49.78;97980.72;5106272;28;20586;-70
2022/05/12 01:07:55;;;;;;;3.10;2.80;;;;;;;18.18;49.81;97980.38;5108485;28;20207;-71
2022/05/12 01:10:23;;;;;;;2.80;2.60;;;;;;;18.24;49.07;97992.28;5105109;28;20215;-71
2022/05/12 01:12:51;;;;;;;2.87;2.57;;;;;;;18.19;49.36;97982.06;5105086;28;20210;-71
2022/05/12 01:15:20;;;;;;;3.90;2.83;;;;;;;18.17;50.12;97997.41;5103934;28;20221;-71
2022/05/12 01:17:48;;;;;;;2.60;2.40;;;;;;;18.14;50.14;98000.41;5101520;28;20210;-71
2022/05/12 01:20:15;;;;;;;3.70;2.80;;;;;;;18.08;51.35;97993.00;5102967;28;20230;-70
2022/05/12 01:22:49;;;;;;;3.50;2.70;;;;;;;18.08;50.23;98011.72;5105218;28;20229;-70
2022/05/12 01:25:21;;;;;;;3.63;2.43;;;;;;;17.99;51.65;98007.28;5102718;28;20213;-71
2022/05/12 01:27:48;;;;;;;3.43;2.60;;;;;;;17.92;51.63;98008.91;5101179;28;20216;-72
2022/05/12 01:30:19;;;;;;;2.97;2.40;;;;;;;17.85;52.58;98021.22;5105145;28;20219;-70
2022/05/12 01:32:46;;;;;;;3.37;2.60;;;;;;;17.78;52.69;98020.16;5107110;28;20214;-70
2022/05/12 01:35:14;;;;;;;4.00;2.50;;;;;;;17.73;53.59;98017.09;5105718;28;20240;-70
2022/05/12 01:37:41;;;;;;;2.70;2.50;;;;;;;17.64;54.33;98023.38;5105492;28;20577;-70
2022/05/12 01:40:09;;;;;;;3.13;2.70;;;;;;;17.60;54.51;98027.34;5108932;28;20234;-70
2022/05/12 01:42:37;;;;;;;4.27;2.73;;;;;;;17.60;53.69;98027.34;5108932;28;20237;-70
2022/05/12 01:45:06;;;;;;;3.53;2.70;;;;;;;17.57;54.32;98033.00;5105482;28;20219;-71
2022/05/12 01:47:33;;;;;;;3.80;2.60;;;;;;;17.61;54.50;98042.38;5104864;28;20687;-71
2022/05/12 01:49:59;;;;;;;4.13;2.30;;;;;;;17.67;54.12;98039.09;5104867;28;20230;-71
2022/05/12 01:52:26;;;;;;;2.97;2.57;;;;;;;17.73;56.60;98038.47;5104767;28;20211;-71
2022/05/12 01:54:52;;;;;;;5.00;2.87;;;;;;;17.90;58.68;98045.66;5106480;28;20217;-71
2022/05/12 01:57:19;;;;;;;3.00;2.67;;;;;;;18.21;58.39;98038.91;5108449;28;20571;-70
2022/05/12 01:59:47;;;;;;;6.13;2.40;;;;;;;18.41;58.35;98045.78;5104953;28;20221;-71
2022/05/12 02:02:14;;;;;;;4.37;2.63;;;;;;;18.62;57.18;98042.75;5104542;28;20211;-70
2022/05/12 02:04:41;;;;;;;3.40;2.20;;;;;;;18.79;56.56;98050.72;5107369;28;20705;-70
2022/05/12 02:07:07;;;;;;;4.00;2.47;;;;;;;18.87;56.32;98053.44;5108382;28;20213;-72
2022/05/12 02:09:34;;;;;;;3.37;2.50;;;;;;;18.97;56.30;98054.16;5105349;28;20230;-72
2022/05/12 02:12:00;;;;;;;4.97;2.70;;;;;;;19.07;55.83;98049.50;5104376;28;20218;-72
2022/05/12 02:14:27;;;;;;;4.60;2.50;;;;;;;19.07;55.98;98049.50;5106614;28;20210;-70
2022/05/12 02:16:55;;;;;;;6.20;2.80;;;;;;;19.05;56.68;98056.88;5108215;28;20214;-70
2022/05/12 02:19:22;;;;;;;4.40;2.70;;;;;;;19.12;56.80;98060.59;5105276;28;20214;-70
2022/05/12 02:21:48;;;;;;;3.17;2.60;;;;;;;19.07;57.07;98060.22;5106807;28;20234;-72
2022/05/12 02:24:14;;;;;;;2.77;2.47;;;;;;;19.03;57.97;98064.22;5106465;28;20206;-71
2022/05/12 02:26:41;;;;;;;3.00;2.73;;;;;;;18.98;58.85;98077.28;5105105;28;20215;-71
2022/05/12 02:29:08;;;;;;;2.57;2.23;;;;;;;18.97;58.95;98074.75;5106553;28;20227;-70
2022/05/12 02:31:34;;;;;;;2.93;2.60;;;;;;;18.96;59.29;98068.53;5108224;28;20233;-70
2022/05/12 02:34:02;;;;;;;4.00;2.80;;;;;;;18.99;59.39;98078.09;5106085;28;20214;-70
2022/05/12 02:36:28;;;;;;;3.77;2.37;;;;;;;19.01;59.56;98086.84;5104067;28;20589;-70
2022/05/12 02:38:56;;;;;;;4.17;2.43;;;;;;;19.02;59.37;98086.66;5105614;28;20684;-70
2022/05/12 02:41:22;;;;;;;3.20;2.40;;;;;;;19.16;58.86;98091.44;5107649;28;20710;-72
2022/05/12 02:43:49;;;;;;;4.53;2.33;;;;;;;19.18;58.72;98094.78;5105291;28;20242;-70
2022/05/12 02:46:16;;;;;;;2.40;2.20;;;;;;;19.22;59.00;98098.00;5102986;28;20246;-71
2022/05/12 02:48:45;;;;;;;3.23;2.30;;;;;;;19.19;59.46;98095.63;5104778;28;20222;-71
2022/05/12 02:51:14;;;;;;;2.57;2.30;;;;;;;19.15;59.26;98094.28;5107825;28;20213;-70
2022/05/12 02:53:41;;;;;;;2.70;2.50;;;;;;;19.10;59.85;98102.78;5106116;28;20225;-70
2022/05/12 02:56:08;;;;;;;2.90;2.40;;;;;;;19.07;59.41;98102.28;5103577;28;20211;-70
2022/05/12 02:58:36;;;;;;;2.30;2.10;;;;;;;19.01;60.10;98103.72;5105482;28;20211;-70
2022/05/12 03:01:05;;;;;;;2.80;2.00;;;;;;;18.91;60.68;98108.34;5107292;28;20248;-70
2022/05/12 03:03:31;;;;;;;2.77;2.20;;;;;;;18.86;61.49;98116.03;5105429;28;20206;-70
2022/05/12 03:05:58;;;;;;;3.40;1.90;;;;;;;18.77;61.53;98116.97;5103755;28;20246;-70
2022/05/12 03:08:26;;;;;;;2.60;1.90;;;;;;;18.66;62.14;98119.06;5105230;28;20215;-70
2022/05/12 03:10:53;;;;;;;3.37;2.00;;;;;;;18.64;62.65;98121.91;5107099;28;20221;-70
2022/05/12 03:13:21;;;;;;;2.07;1.80;;;;;;;18.63;62.92;98125.59;5103972;28;20240;-71
2022/05/12 03:15:47;;;;;;;3.87;1.90;;;;;;;18.57;63.18;98122.66;5103466;28;20218;-71
2022/05/12 03:18:14;;;;;;;1.93;1.73;;;;;;;18.55;63.29;98122.84;5104925;28;20211;-71
2022/05/12 03:20:40;;;;;;;1.70;1.43;;;;;;;18.59;63.50;98129.56;5107176;28;20238;-71
2022/05/12 03:23:07;;;;;;;1.53;1.43;;;;;;;18.52;63.82;98138.38;5105975;28;20217;-71
2022/05/12 03:25:35;;;;;;;2.53;1.80;;;;;;;18.44;64.52;98132.94;5102993;28;20215;-72
2022/05/12 03:28:02;;;;;;;2.27;1.60;;;;;;;18.39;64.98;98143.25;5107832;28;20206;-71
2022/05/12 03:30:28;;;;;;;2.10;1.73;;;;;;;18.34;65.20;98140.25;5106703;28;20217;-71
2022/05/12 03:32:55;;;;;;;3.40;1.70;;;;;;;18.25;65.90;98141.97;5105868;28;20224;-70
2022/05/12 03:35:22;;;;;;;2.73;1.63;;;;;;;18.24;66.09;98148.28;5107656;28;20214;-70
2022/05/12 03:37:48;;;;;;;2.33;1.70;;;;;;;18.20;66.69;98143.41;5105640;28;20226;-71
2022/05/12 03:40:17;;;;;;;1.97;1.80;;;;;;;18.12;67.12;98152.22;5100767;28;20219;-70
2022/05/12 03:42:45;;;;;;;2.00;1.50;;;;;;;18.10;67.35;98164.88;5103272;28;20245;-70
2022/05/12 03:45:11;;;;;;;2.17;1.47;;;;;;;18.15;67.15;98157.25;5106503;28;20206;-71
2022/05/12 03:47:40;;;;;;;3.20;1.50;;;;;;;18.16;66.65;98163.44;5105584;28;20218;-71
2022/05/12 03:50:10;;;;;;;2.37;1.80;;;;;;;18.20;66.69;98160.31;5102493;28;20215;-71
2022/05/12 03:52:37;;;;;;;3.97;1.70;;;;;;;18.28;65.88;98171.06;5103929;28;20319;-71
2022/05/12 03:55:05;;;;;;;2.40;1.70;;;;;;;18.35;66.13;98182.88;5105931;28;20221;-71
2022/05/12 03:57:32;;;;;;;3.07;1.67;;;;;;;18.38;66.67;98179.06;5104933;28;20243;-71
2022/05/12 04:00:00;;;;;;;1.80;1.70;;;;;;;18.43;66.87;98187.47;5102013;28;20218;-71
2022/05/12 04:02:26;;;;;;;1.87;1.70;;;;;;;18.40;66.32;98188.63;5103385;28;20241;-72
2022/05/12 04:04:53;;;;;;;1.90;1.80;;;;;;;18.40;66.70;98193.97;5105351;28;20222;-71
2022/05/12 04:07:22;;;;;;;1.70;1.50;;;;;;;18.44;66.65;98191.81;5104175;28;20214;-70
2022/05/12 04:09:49;;;;;;;2.20;1.40;;;;;;;18.45;66.64;98207.72;5101788;28;20218;-72
2022/05/12 04:12:17;;;;;;;3.47;1.50;;;;;;;18.44;67.09;98205.19;5103105;28;20229;-70
2022/05/12 04:14:43;;;;;;;1.93;1.47;;;;;;;18.38;66.99;98217.38;5105509;28;20216;-71
2022/05/12 04:17:15;;;;;;;2.63;1.67;;;;;;;18.30;67.86;98217.25;5104669;28;20214;-71
2022/05/12 04:19:42;;;;;;;1.57;1.47;;;;;;;18.44;67.22;98215.91;5102042;28;20218;-71
2022/05/12 04:22:09;;;;;;;1.83;1.70;;;;;;;18.48;67.46;98218.13;5102930;28;20731;-71
2022/05/12 04:24:35;;;;;;;1.80;1.70;;;;;;;18.45;68.15;98215.75;5105634;28;20218;-71
2022/05/12 04:27:02;;;;;;;1.70;1.60;;;;;;;18.39;68.91;98221.72;5100925;28;20253;-70
2022/05/12 04:29:28;;;;;;;3.27;1.90;;;;;;;18.43;69.37;98238.31;5105576;28;20218;-71
2022/05/12 04:31:55;;;;;;;1.80;1.70;;;;;;;18.35;70.15;98233.72;5103085;28;20224;-71
2022/05/12 04:37:07;;;;;;;1.70;1.60;;;;;;;18.11;71.90;98236.09;5105118;28;20344;-71
2022/05/12 04:39:33;;;;;;;1.80;1.70;;;;;;;18.02;72.59;98247.72;5105507;28;20218;-71
2022/05/12 04:42:00;;;;;;;2.50;1.70;;;;;;;17.98;73.33;98250.84;5102263;28;20250;-71
2022/05/12 04:44:27;;;;;;;2.80;1.80;;;;;;;17.93;73.52;98250.44;5101934;28;20234;-72
2022/05/12 04:46:53;;;;;;;1.90;1.50;;;;;;;17.94;73.87;98255.66;5104699;28;20210;-71
2022/05/12 04:49:20;;;;;;;2.23;1.80;;;;;;;17.91;73.66;98255.94;5105581;28;20214;-71
2022/05/12 04:51:48;;;;;;;1.70;1.60;;;;;;;17.90;73.93;98259.59;5105190;28;20211;-71
2022/05/12 04:54:14;;;;;;;3.80;1.90;;;;;;;17.88;74.88;98250.88;5105286;28;20217;-71
2022/05/12 04:56:42;;;;;;;2.70;1.80;;;;;;;17.94;72.98;98269.03;5102544;28;20210;-71
2022/05/12 04:59:10;;;;;;;1.63;1.53;;;;;;;18.07;72.86;98266.84;5099928;28;20670;-71
2022/05/12 05:01:37;;;;;;;3.20;1.70;;;;;;;18.26;71.80;98272.06;5103899;28;20237;-70
2022/05/12 05:04:04;;;;;;;2.33;1.70;;;;;;;18.43;71.47;98267.75;5105242;28;20574;-71
2022/05/12 05:06:31;;;;;;;1.70;1.60;;;;;;;18.67;71.14;98276.91;5102017;28;20216;-71
2022/05/12 05:09:00;;;;;;;2.33;1.60;;;;;;;18.92;70.51;98273.44;5101303;28;20211;-71
2022/05/12 05:11:27;;;;;;;2.77;1.70;;;;;;;19.06;69.75;98278.25;5103755;28;20237;-71
2022/05/12 05:13:54;;;;;;;3.13;1.73;;;;;;;19.08;69.38;98276.22;5104709;28;20279;-70
2022/05/12 05:16:22;;;;;;;4.00;2.03;;;;;;;19.19;68.87;98284.03;5102471;28;20258;-70
2022/05/12 05:18:49;;;;;;;3.07;2.03;;;;;;;19.57;66.54;98294.38;5101068;28;20294;-70
2022/05/12 05:21:16;;;;;;;3.83;1.80;;;;;;;19.88;65.87;98290.19;5103056;28;20238;-70
2022/05/12 05:23:42;;;;;;;2.57;1.57;;;;;;;20.19;63.99;98293.25;5103382;28;20206;-70
2022/05/12 05:26:11;;;;;;;2.27;1.57;;;;;;;20.63;62.41;98295.56;5102543;28;20214;-70
2022/05/12 05:28:38;;;;;;;2.37;1.80;;;;;;;21.30;60.01;98297.16;5103769;28;20217;-70
2022/05/12 05:31:04;;;;;;;2.67;1.93;;;;;;;21.50;58.87;98312.78;5105030;28;20211;-72
2022/05/12 05:33:31;;;;;;;1.30;1.20;;;;;;;21.40;58.42;98312.09;5105086;28;20270;-71
2022/05/12 05:35:58;;;;;;;3.10;1.60;;;;;;;21.18;58.53;98318.19;5102990;28;20214;-71
2022/05/12 05:38:25;;;;;;;2.17;1.50;;;;;;;20.96;59.42;98321.50;5101378;28;20210;-70
2022/05/12 05:40:52;;;;;;;1.60;1.43;;;;;;;20.71;60.50;98327.81;5102944;28;20219;-70
2022/05/12 05:43:22;;;;;;;1.50;1.40;;;;;;;20.69;60.64;98324.47;5105093;28;20242;-71
2022/05/12 05:45:48;;;;;;;4.00;1.50;;;;;;;20.63;60.52;98327.78;5102538;28;20213;-70
2022/05/12 05:48:15;;;;;;;1.60;1.47;;;;;;;20.45;61.94;98340.50;5100747;28;20217;-70
2022/05/12 05:53:31;;;;;;;1.90;1.70;;;;;;;20.26;62.99;98338.06;5104412;28;20217;-70
2022/05/12 05:56:01;;;;;;;2.97;1.70;;;;;;;20.20;63.39;98351.28;5101318;28;20222;-71
2022/05/12 05:58:29;;;;;;;1.80;1.30;;;;;;;20.24;63.40;98345.44;5101892;28;20226;-71
2022/05/12 06:00:56;;;;;;;3.33;1.50;;;;;;;20.22;63.66;98360.84;5104762;28;20212;-71
2022/05/12 06:03:23;;;;;;;1.50;1.40;;;;;;;20.25;63.97;98359.69;5103745;28;20214;-71
2022/05/12 06:05:50;;;;;;;1.40;1.30;;;;;;;20.17;64.09;98360.50;5105893;28;20206;-71
2022/05/12 06:08:18;;;;;;;1.97;1.47;;;;;;;19.90;65.12;98359.81;5103508;28;20248;-71
2022/05/12 06:10:45;;;;;;;1.47;1.30;;;;;;;19.78;65.80;98367.28;5100461;28;20680;-71
2022/05/12 06:13:12;;;;;;;1.53;1.33;;;;;;;19.65;66.95;98374.03;5101443;28;20214;-71
2022/05/12 06:15:41;;;;;;;3.10;1.70;;;;;;;19.59;67.53;98367.47;5104245;28;20672;-72
2022/05/12 06:18:09;;;;;;;1.53;1.40;;;;;;;19.61;67.39;98375.34;5101774;28;20222;-72
2022/05/12 06:20:37;;;;;;;2.03;1.33;;;;;;;19.64;67.90;98377.72;5103587;28;20234;-72
2022/05/12 06:23:03;;;;;;;2.37;1.37;;;;;;;19.69;67.25;98384.31;5105422;28;20639;-69
2022/05/12 06:25:30;;;;;;;2.50;1.30;;;;;;;19.89;66.41;98396.53;5108099;28;20218;-69
2022/05/12 06:27:57;;;;;;;1.87;1.40;;;;;;;20.17;66.38;98400.75;5103459;28;20209;-70
2022/05/12 06:30:23;;;;;;;1.40;1.20;;;;;;;20.39;64.11;98394.84;5110344;28;20215;-67
2022/05/12 06:32:55;;;;;;;2.53;1.30;;;;;;;20.66;64.45;98402.66;5101893;28;20732;-71
2022/05/12 06:35:21;;;;;;;1.67;1.20;;;;;;;20.88;64.11;98402.13;5106672;28;20225;-70
2022/05/12 06:37:48;;;;;;;2.17;1.50;;;;;;;21.05;62.36;98393.09;5105884;28;20218;-68
2022/05/12 06:40:14;;;;;;;1.83;1.40;;;;;;;21.07;62.23;98395.59;5101502;28;20218;-69
2022/05/12 06:42:42;;;;;;;1.20;1.10;;;;;;;21.20;62.33;98409.38;5107954;28;20234;-70
2022/05/12 06:45:09;;;;;;;2.07;1.27;;;;;;;21.23;61.88;98412.63;5109781;28;20238;-68
2022/05/12 06:47:35;;;;;;;1.37;1.27;;;;;;;21.26;62.26;98406.88;5108679;28;20207;-68
2022/05/12 06:50:04;;;;;;;2.07;1.10;;;;;;;21.39;61.67;98417.16;5108555;28;20222;-70
2022/05/12 06:52:31;;;;;;;1.23;1.13;;;;;;;21.39;62.39;98409.94;5110407;28;20690;-69
2022/05/12 06:54:58;;;;;;;2.07;1.10;;;;;;;21.30;62.39;98412.78;5109999;28;20214;-68
2022/05/12 06:57:27;;;;;;;1.77;1.40;;;;;;;21.30;62.42;98423.53;5111468;28;20210;-70
2022/05/12 06:59:54;;;;;;;1.30;1.20;;;;;;;21.28;62.12;98417.50;5109501;28;20211;-70
2022/05/12 07:02:20;;;;;;;1.40;1.30;;;;;;;21.25;62.59;98424.03;5110992;28;20234;-70
2022/05/12 07:04:47;;;;;;;1.63;1.13;;;;;;;21.14;62.84;98428.88;5111268;28;20585;-70
2022/05/12 07:07:15;;;;;;;4.27;1.40;;;;;;;21.07;62.97;98423.31;5111270;28;20246;-69
2022/05/12 07:09:42;;;;;;;1.70;1.30;;;;;;;21.03;63.69;98431.88;5107531;28;20211;-69
2022/05/12 07:12:11;;;;;;;2.73;1.40;;;;;;;21.06;63.60;98429.72;5108043;28;20211;-69
2022/05/12 07:14:37;;;;;;;2.37;1.23;;;;;;;21.00;64.07;98435.75;5109291;28;20221;-70
2022/05/12 07:17:04;;;;;;;3.33;1.60;;;;;;;20.92;63.81;98430.31;5108600;28;20209;-71
2022/05/12 07:19:32;;;;;;;2.70;1.20;;;;;;;20.89;64.32;98438.72;5107157;28;20236;-69
2022/05/12 07:27:28;;;;;;;1.87;1.20;;;;;;;20.69;64.86;98448.03;5105637;28;20213;-70
2022/05/12 07:29:54;;;;;;;2.93;1.30;;;;;;;20.51;63.05;98451.78;5105018;28;20699;-69
2022/05/12 07:32:22;;;;;;;3.50;1.70;;;;;;;20.32;63.83;98447.50;5108603;28;20233;-70
2022/05/12 07:34:48;;;;;;;1.40;1.30;;;;;;;20.17;64.14;98446.38;5108581;28;20214;-70
2022/05/12 07:37:16;;;;;;;1.80;1.10;;;;;;;20.11;65.18;98456.91;5104755;28;20220;-70
2022/05/12 07:39:44;;;;;;;5.07;1.43;;;;;;;20.18;65.21;98461.47;5105127;28;20206;-70
2022/05/12 07:42:10;;;;;;;2.13;1.50;;;;;;;20.20;65.88;98464.88;5108308;28;20245;-70
2022/05/12 07:44:38;;;;;;;3.53;1.50;;;;;;;20.26;66.46;98461.56;5107948;28;20229;-69
2022/05/12 07:47:09;;;;;;;1.23;1.07;;;;;;;20.47;66.78;98451.25;5106603;28;20237;-70
2022/05/12 07:49:36;;;;;;;2.07;1.50;;;;;;;20.58;65.20;98460.88;5105445;28;20260;-70
2022/05/12 07:52:03;;;;;;;2.47;1.30;;;;;;;20.67;64.29;98457.25;5101210;28;20217;-70
2022/05/12 07:54:30;;;;;;;1.40;1.30;;;;;;;20.73;64.59;98470.84;5107716;28;20218;-70
2022/05/12 07:56:58;;;;;;;1.80;1.30;;;;;;;20.85;64.56;98466.06;5109443;28;20214;-70
2022/05/12 07:59:27;;;;;;;1.73;1.40;;;;;;;20.93;64.11;98464.28;5104761;28;20451;-69
2022/05/12 08:01:54;;;;;;;1.87;1.70;;;;;;;21.03;63.24;98464.13;5100788;28;20273;-69
2022/05/12 08:04:21;;;;;;;1.87;1.20;;;;;;;21.13;63.53;98463.00;5106002;28;20210;-69
2022/05/12 08:06:47;;;;;;;1.13;1.10;;;;;;;21.39;63.28;98463.72;5105597;28;20221;-70
2022/05/12 08:09:15;;;;;;;2.40;1.30;;;;;;;21.63;61.95;98455.69;5103397;28;20211;-70
2022/05/12 08:11:42;;;;;;;1.57;1.30;;;;;;;21.86;60.57;98464.81;5100551;28;20220;-69
2022/05/12 08:14:10;;;;;;;1.57;1.10;;;;;;;22.04;59.70;98460.09;5107735;28;20214;-69
2022/05/12 08:16:37;;;;;;;2.60;1.30;;;;;;;22.13;59.32;98460.91;5105226;28;20224;-70
2022/05/12 08:19:04;;;;;;;3.10;1.50;;;;;;;22.11;59.61;98461.09;5104888;28;20241;-70
2022/05/12 08:21:31;;;;;;;1.90;1.60;;;;;;;22.17;59.19;98468.47;5107293;28;20217;-70
2022/05/12 08:23:58;;;;;;;2.43;1.57;;;;;;;22.19;58.58;98463.75;5107147;28;20608;-69
2022/05/12 08:26:25;;;;;;;2.07;1.47;;;;;;;22.20;59.31;98457.34;5101987;28;20581;-69
2022/05/12 08:28:51;;;;;;;1.97;1.50;;;;;;;22.14;58.66;98458.03;5102728;28;20211;-70
2022/05/12 08:31:20;;;;;;;1.97;1.30;;;;;;;22.25;58.47;98460.38;5105669;28;20724;-69
2022/05/12 08:33:47;;;;;;;1.80;1.60;;;;;;;22.51;59.43;98466.44;5107370;28;20297;-70
2022/05/12 08:36:13;;;;;;;3.03;1.40;;;;;;;22.81;58.45;98454.03;5105355;28;20675;-69
2022/05/12 08:38:44;;;;;;;1.83;1.60;;;;;;;22.96;55.10;98457.66;5103523;28;20688;-69
2022/05/12 08:41:19;;;;;;;2.10;1.90;;;;;;;23.03;55.48;98461.38;5106544;28;20214;-70
2022/05/12 08:43:57;;;;;;;3.17;1.37;;;;;;;23.09;55.44;98469.56;5106883;28;20610;-70
2022/05/12 08:46:27;;;;;;;1.40;1.30;;;;;;;23.28;54.85;98471.03;5103070;28;20848;-70
2022/05/12 08:49:04;;;;;;;2.27;1.47;;;;;;;23.49;55.84;98474.78;5106763;28;20316;-70
2022/05/12 08:51:34;;;;;;;2.43;1.70;;;;;;;23.62;55.89;98479.59;5107053;28;20221;-70
2022/05/12 08:54:04;;;;;;;2.57;1.70;;;;;;;23.78;55.21;98480.28;5104202;28;20210;-70
2022/05/12 08:56:32;;;;;;;2.00;1.80;;;;;;;23.74;53.19;98479.00;5103259;28;20217;-70
2022/05/12 08:59:00;;;;;;;3.43;1.90;;;;;;;23.71;54.15;98471.25;5106895;28;20221;-70
2022/05/12 09:01:37;;;;;;;3.67;1.80;;;;;;;23.67;54.12;98486.13;5107062;28;20213;-70
2022/05/12 09:04:28;;;;;;;2.57;2.10;;;;;;;23.58;54.52;98484.50;5103183;28;20234;-70
2022/05/12 09:07:02;;;;;;;3.27;1.90;;;;;;;23.45;53.93;98484.25;5087740;28;20612;-69
2022/05/12 09:09:33;;;;;;;1.87;1.77;;;;;;;23.53;54.57;98486.06;5106733;28;20214;-69
2022/05/12 09:12:17;;;;;;;2.23;1.90;;;;;;;23.56;54.19;98486.53;5110474;28;20214;-68
2022/05/12 09:14:50;;;;;;;2.23;2.03;;;;;;;23.61;53.29;98478.75;5100453;28;20210;-69
2022/05/12 09:17:22;;;;;;;2.60;1.80;;;;;;;23.84;53.24;98474.19;5107001;28;20214;-69
2022/05/12 09:19:49;;;;;;;2.73;2.10;;;;;;;24.17;52.37;98464.81;5102913;28;20217;-69
2022/05/12 09:22:24;;;;;;;2.27;2.00;;;;;;;24.36;52.31;98464.31;5105621;28;20249;-70
2022/05/12 09:24:51;;;;;;;2.87;1.60;;;;;;;24.37;51.46;98465.97;5105406;28;20679;-70
2022/05/12 09:27:17;;;;;;;2.17;1.57;;;;;;;24.25;51.18;98467.44;5102803;28;20206;-71
2022/05/12 09:29:46;;;;;;;2.20;1.70;;;;;;;24.04;51.68;98480.81;5102845;28;20214;-69
2022/05/12 09:32:22;;;;;;;2.23;1.70;;;;;;;23.81;52.23;98476.41;5109455;28;20263;-69
2022/05/12 09:35:10;;;;;;;2.03;1.70;;;;;;;23.67;53.87;98475.34;5106688;28;20295;-70
2022/05/12 09:37:40;;;;;;;5.20;1.83;;;;;;;23.68;53.46;98474.31;5104929;28;20220;-71
2022/05/12 09:40:22;;;;;;;3.07;2.10;;;;;;;23.67;52.85;98475.34;5098779;28;20225;-70
2022/05/12 09:42:51;;;;;;;2.10;1.90;;;;;;;23.58;54.07;98481.78;5106533;28;20608;-69
2022/05/12 09:45:28;;;;;;;2.80;1.70;;;;;;;23.81;54.83;98469.16;5102813;28;20573;-69
2022/05/12 09:48:16;;;;;;;3.37;2.40;;;;;;;23.91;53.30;98475.19;5098281;28;20222;-70
2022/05/12 09:50:42;;;;;;;3.10;2.30;;;;;;;24.06;52.36;98473.38;5104946;28;20209;-69
2022/05/12 09:53:11;;;;;;;2.60;2.40;;;;;;;23.89;51.92;98471.81;5104053;28;20215;-71
2022/05/12 09:55:40;;;;;;;4.77;2.37;;;;;;;23.79;51.47;98476.59;5109361;28;20629;-70
2022/05/12 09:58:26;;;;;;;2.90;2.27;;;;;;;23.80;52.39;98466.63;5110170;28;20217;-70
2022/05/12 10:01:15;;;;;;;3.93;2.50;;;;;;;23.68;53.19;98468.06;5105532;28;20266;-70
2022/05/12 10:09:17;;;;;;;3.23;2.30;;;;;;;23.46;53.08;98453.53;5109890;28;20266;-70
2022/05/12 10:11:48;;;;;;;2.63;2.13;;;;;;;23.43;54.34;98459.31;5112482;28;20221;-70
2022/05/12 10:14:24;;;;;;;3.87;2.50;;;;;;;23.58;54.41;98452.13;5110344;28;20214;-69
2022/05/12 10:16:54;;;;;;;2.77;2.40;;;;;;;23.57;53.35;98449.59;5106126;28;20234;-71
2022/05/12 10:19:23;;;;;;;2.90;2.33;;;;;;;23.37;54.84;98451.94;5112394;28;20210;-70
2022/05/12 10:21:57;;;;;;;2.60;2.17;;;;;;;23.36;53.72;98446.72;5112237;28;20210;-71
2022/05/12 10:24:32;;;;;;;3.50;2.40;;;;;;;23.43;54.41;98437.72;5106037;28;20237;-69
2022/05/12 10:27:08;;;;;;;3.57;2.47;;;;;;;23.59;54.39;98443.00;5105664;28;20687;-70
2022/05/12 10:29:47;;;;;;;2.40;2.20;;;;;;;23.48;53.07;98432.59;5103409;28;20214;-70
2022/05/12 10:32:29;;;;;;;2.67;2.47;;;;;;;23.11;53.87;98429.78;5106941;28;20213;-69
2022/05/12 10:35:07;;;;;;;2.67;2.47;;;;;;;23.01;54.46;98425.63;5106774;28;20218;-69
2022/05/12 10:37:44;;;;;;;2.57;2.37;;;;;;;22.85;55.42;98429.25;5097440;28;20691;-68
2022/05/12 10:40:25;;;;;;;3.67;2.23;;;;;;;22.75;55.35;98420.53;5104732;28;20221;-68
2022/05/12 10:43:01;;;;;;;4.43;2.90;;;;;;;22.69;54.96;98429.34;5112251;28;20665;-68
2022/05/12 10:45:32;;;;;;;3.17;2.50;;;;;;;22.87;55.05;98419.13;5114462;28;20563;-69
2022/05/12 10:48:19;;;;;;;4.67;2.80;;;;;;;23.06;53.80;98424.09;5114425;28;20209;-69
2022/05/12 10:50:55;;;;;;;2.37;2.17;;;;;;;23.33;53.71;98410.13;5114001;28;20210;-68
2022/05/12 10:53:46;;;;;;;3.10;2.50;;;;;;;23.84;53.26;98403.16;5114347;28;20218;-68
2022/05/12 10:56:25;;;;;;;4.13;2.57;;;;;;;24.01;51.53;98405.56;5114304;28;20296;-68
2022/05/12 10:59:00;;;;;;;4.13;2.77;;;;;;;24.28;49.86;98402.25;5107553;28;20225;-68
2022/05/12 11:01:32;;;;;;;2.67;2.27;;;;;;;24.53;49.80;98400.94;5106300;28;20210;-69
2022/05/12 11:04:04;;;;;;;5.30;2.60;;;;;;;24.71;49.34;98397.88;5114010;28;20238;-69
2022/05/12 11:06:37;;;;;;;3.40;2.50;;;;;;;24.82;49.76;98408.22;5113073;28;20218;-70
2022/05/12 11:09:08;;;;;;;3.20;2.37;;;;;;;24.83;48.26;98402.66;5112303;28;20206;-69
2022/05/12 11:11:38;;;;;;;2.80;2.60;;;;;;;24.68;48.50;98393.69;5114138;28;20221;-69
2022/05/12 11:14:11;;;;;;;5.27;2.90;;;;;;;24.46;50.20;98386.53;5113571;28;20206;-69
2022/05/12 11:16:43;;;;;;;2.83;2.63;;;;;;;24.58;49.61;98392.31;5113579;28;20237;-70
2022/05/12 11:19:18;;;;;;;3.53;2.40;;;;;;;24.74;48.45;98381.31;5113536;28;20698;-69
2022/05/12 11:21:58;;;;;;;3.53;2.40;;;;;;;24.84;50.78;98379.97;5112849;28;20217;-69
2022/05/12 11:24:33;;;;;;;3.00;2.67;;;;;;;25.06;48.79;98389.78;5097355;28;20230;-69
2022/05/12 11:27:10;;;;;;;3.13;2.53;;;;;;;25.13;48.09;98379.91;5109425;28;20221;-68
2022/05/12 11:29:50;;;;;;;3.77;2.87;;;;;;;25.28;47.76;98383.44;5108861;28;20214;-69
2022/05/12 11:32:29;;;;;;;3.10;2.60;;;;;;;25.37;47.05;98384.97;5107046;28;20217;-69
2022/05/12 11:35:01;;;;;;;2.90;2.60;;;;;;;25.46;47.19;98382.97;5101030;28;20214;-69
2022/05/12 11:37:36;;;;;;;4.07;2.53;;;;;;;25.56;44.99;98378.94;5107484;28;20218;-69
2022/05/12 11:40:08;;;;;;;4.63;2.70;;;;;;;25.53;44.62;98371.19;5105781;28;20205;-69
2022/05/12 11:45:47;;;;;;;3.73;2.60;;;;;;;25.44;47.65;98363.41;5104265;28;20251;-68
2022/05/12 11:48:32;;;;;;;3.03;2.30;;;;;;;25.52;46.45;98355.97;5101578;28;20218;-68
2022/05/12 11:51:11;;;;;;;3.37;2.53;;;;;;;25.56;46.81;98367.25;5105537;28;20218;-70
2022/05/12 11:53:53;;;;;;;5.03;2.65;;;;;;;25.76;47.58;98361.00;5105438;28;20236;-69
2022/05/12 11:56:39;;;;;;;5.53;2.70;;;;;;;26.08;44.83;98370.44;5100222;28;20225;-69
2022/05/12 11:59:21;;;;;;;4.97;2.60;;;;;;;26.11;45.44;98361.91;5108210;28;20633;-68
2022/05/12 12:01:54;;;;;;;3.03;2.40;;;;;;;26.26;45.64;98366.19;5112599;28;20218;-69
2022/05/12 12:04:42;;;;;;;2.78;2.53;;;;;;;26.63;43.77;98362.28;5099760;28;20242;-69